createdAt,value
2023-06-30T00:03:35.071Z,13.57
2023-06-30T00:08:38.275Z,13.53
2023-06-30T00:13:41.385Z,13.47
2023-06-30T00:18:44.604Z,13.41
2023-06-30T00:23:48.012Z,13.31
2023-06-30T00:28:51.327Z,13.22
2023-06-30T00:33:54.543Z,13.15
2023-06-30T00:38:57.660Z,13.12
2023-06-30T00:44:00.757Z,13.10
2023-06-30T00:49:03.871Z,13.10
2023-06-30T00:54:07.084Z,13.10
2023-06-30T00:59:10.289Z,13.04
2023-06-30T01:04:24.979Z,12.95
2023-06-30T01:09:34.003Z,12.91
2023-06-30T01:14:38.924Z,12.86
2023-06-30T01:19:46.350Z,12.72
2023-06-30T01:24:52.770Z,12.62
2023-06-30T01:29:55.980Z,12.56
2023-06-30T01:34:59.027Z,12.54
2023-06-30T01:40:02.407Z,12.49
2023-06-30T01:45:07.211Z,12.41
2023-06-30T01:50:11.176Z,12.37
2023-06-30T01:55:14.294Z,12.35
2023-06-30T02:00:17.610Z,12.35
2023-06-30T02:05:20.723Z,12.33
2023-06-30T02:10:23.828Z,12.34
2023-06-30T02:15:26.935Z,12.35
2023-06-30T02:20:29.936Z,12.39
2023-06-30T02:25:33.048Z,12.46
2023-06-30T02:30:36.072Z,12.73
2023-06-30T02:35:39.647Z,13.27
2023-06-30T02:40:42.783Z,13.86
2023-06-30T02:45:46.156Z,14.03
2023-06-30T02:50:49.613Z,13.96
2023-06-30T02:55:52.726Z,14.26
2023-06-30T03:00:57.877Z,14.50
2023-06-30T03:06:01.086Z,14.33
2023-06-30T03:11:04.215Z,14.16
2023-06-30T03:16:08.435Z,14.10
2023-06-30T03:21:11.648Z,14.18
2023-06-30T03:26:15.470Z,14.43
2023-06-30T03:31:18.620Z,15.90
2023-06-30T03:36:21.690Z,17.84
2023-06-30T03:41:24.695Z,18.57
2023-06-30T03:46:27.769Z,18.22
2023-06-30T03:51:30.909Z,18.31
2023-06-30T03:56:34.023Z,18.70
2023-06-30T04:01:38.526Z,20.56
2023-06-30T04:06:41.572Z,23.11
2023-06-30T04:11:44.687Z,24.81
2023-06-30T04:16:47.912Z,26.56
2023-06-30T04:21:51.306Z,27.54
2023-06-30T04:26:54.427Z,27.86
2023-06-30T04:31:57.602Z,29.15
2023-06-30T04:37:00.741Z,30.57
2023-06-30T04:42:04.585Z,31.52
2023-06-30T04:47:07.781Z,32.34
2023-06-30T04:52:11.095Z,32.10
2023-06-30T04:57:14.203Z,30.40
2023-06-30T05:02:17.230Z,28.85
2023-06-30T05:07:20.859Z,29.55
2023-06-30T05:12:24.166Z,31.29
2023-06-30T05:17:27.317Z,33.11
2023-06-30T05:22:30.465Z,34.80
2023-06-30T05:27:33.492Z,35.93
2023-06-30T05:32:36.721Z,36.94
2023-06-30T05:37:39.891Z,36.08
2023-06-30T05:42:42.998Z,33.71
2023-06-30T05:47:46.127Z,32.94
2023-06-30T05:52:49.897Z,31.76
2023-06-30T05:57:53.160Z,30.45
2023-06-30T06:02:56.615Z,28.83
2023-06-30T06:07:59.985Z,27.49
2023-06-30T06:13:03.078Z,26.49
2023-06-30T06:18:06.431Z,25.81
2023-06-30T06:23:09.630Z,25.52
2023-06-30T06:28:12.828Z,25.36
2023-06-30T06:33:15.835Z,25.62
2023-06-30T06:38:20.118Z,26.36
2023-06-30T06:43:27.651Z,27.05
2023-06-30T06:48:31.345Z,27.25
2023-06-30T06:53:35.632Z,27.15
2023-06-30T06:58:43.273Z,27.15
2023-06-30T07:03:47.018Z,27.40
2023-06-30T07:08:50.398Z,27.85
2023-06-30T07:13:53.406Z,29.52
2023-06-30T07:18:56.551Z,31.28
2023-06-30T07:23:59.846Z,32.48
2023-06-30T07:29:02.943Z,34.34
2023-06-30T07:34:06.172Z,35.72
2023-06-30T07:39:09.469Z,35.90
2023-06-30T07:44:13.190Z,34.88
2023-06-30T07:49:16.190Z,34.55
2023-06-30T07:54:19.395Z,35.63
2023-06-30T07:59:23.017Z,36.48
2023-06-30T08:04:26.475Z,37.20
2023-06-30T08:09:29.648Z,37.52
2023-06-30T08:14:32.858Z,37.56
2023-06-30T08:19:47.174Z,37.92
2023-06-30T08:24:52.713Z,38.56
2023-06-30T08:29:55.733Z,38.88
2023-06-30T08:34:58.899Z,38.61
2023-06-30T08:40:02.328Z,37.70
2023-06-30T08:45:06.488Z,37.70
2023-06-30T08:50:10.241Z,37.53
2023-06-30T08:55:13.984Z,37.23
2023-06-30T09:00:17.795Z,36.60
2023-06-30T09:05:26.192Z,34.95
2023-06-30T09:10:35.323Z,33.75
2023-06-30T09:15:41.371Z,32.98
2023-06-30T09:20:44.663Z,32.42
2023-06-30T09:25:48.511Z,32.15
2023-06-30T09:30:52.061Z,32.18
2023-06-30T09:35:57.638Z,32.21
2023-06-30T09:41:04.631Z,31.90
2023-06-30T09:46:07.741Z,31.50
2023-06-30T09:51:11.157Z,31.22
2023-06-30T09:56:24.264Z,31.45
2023-06-30T10:01:27.465Z,31.67
2023-06-30T10:06:32.151Z,31.62
2023-06-30T10:11:37.461Z,31.35
2023-06-30T10:16:41.434Z,30.92
2023-06-30T10:21:44.653Z,30.59
2023-06-30T10:26:48.991Z,30.44
2023-06-30T10:31:51.961Z,30.37
2023-06-30T10:36:55.418Z,30.31
2023-06-30T10:42:01.109Z,30.17
2023-06-30T10:47:06.657Z,29.94
2023-06-30T10:52:11.551Z,29.72
2023-06-30T10:57:24.657Z,29.51
2023-06-30T11:02:32.561Z,29.59
2023-06-30T11:07:35.934Z,29.80
2023-06-30T11:12:53.560Z,30.01
2023-06-30T11:17:56.731Z,30.14
2023-06-30T11:23:04.372Z,30.26
2023-06-30T11:28:10.187Z,30.32
2023-06-30T11:33:13.254Z,30.24
2023-06-30T11:38:16.659Z,29.99
2023-06-30T11:43:23.452Z,29.53
2023-06-30T11:48:29.597Z,28.91
2023-06-30T11:53:32.946Z,28.62
2023-06-30T11:58:36.051Z,28.49
2023-06-30T12:03:39.219Z,28.35
2023-06-30T12:08:42.382Z,28.18
2023-06-30T12:13:48.473Z,28.12
2023-06-30T12:18:52.074Z,28.28
2023-06-30T12:23:58.372Z,28.36
2023-06-30T12:29:06.377Z,28.36
2023-06-30T12:34:09.634Z,28.37
2023-06-30T12:39:12.820Z,28.37
2023-06-30T12:44:16.265Z,28.51
2023-06-30T12:49:19.458Z,28.82
2023-06-30T12:54:22.649Z,29.01
2023-06-30T12:59:25.977Z,28.86
2023-06-30T13:04:29.280Z,28.35
2023-06-30T13:09:32.284Z,27.96
2023-06-30T13:14:35.355Z,27.83
2023-06-30T13:19:38.397Z,27.66
2023-06-30T13:24:42.180Z,27.49
2023-06-30T13:29:52.607Z,27.33
2023-06-30T13:34:56.154Z,27.20
2023-06-30T13:39:59.636Z,27.03
2023-06-30T13:45:02.647Z,26.90
2023-06-30T13:50:06.370Z,26.89
2023-06-30T13:55:09.724Z,26.89
2023-06-30T14:00:13.717Z,26.88
2023-06-30T14:05:16.964Z,26.95
2023-06-30T14:10:20.132Z,27.11
2023-06-30T14:15:23.561Z,27.34
2023-06-30T14:20:26.761Z,27.56
2023-06-30T14:25:29.879Z,27.84
2023-06-30T14:30:35.623Z,28.22
2023-06-30T14:35:39.099Z,28.66
2023-06-30T14:40:42.480Z,28.85
2023-06-30T14:45:46.096Z,28.81
2023-06-30T14:50:49.989Z,28.66
2023-06-30T14:55:53.253Z,28.48
2023-06-30T15:00:56.446Z,28.30
2023-06-30T15:05:59.558Z,28.10
2023-06-30T15:11:02.700Z,27.99
2023-06-30T15:16:06.193Z,27.98
2023-06-30T15:21:09.406Z,27.83
2023-06-30T15:26:12.517Z,27.65
2023-06-30T15:31:15.925Z,27.48
2023-06-30T15:36:19.078Z,27.33
2023-06-30T15:41:23.634Z,27.28
2023-06-30T15:46:26.948Z,27.24
2023-06-30T15:51:30.104Z,27.18
2023-06-30T15:56:33.206Z,27.05
2023-06-30T16:01:36.316Z,26.70
2023-06-30T16:06:39.628Z,26.50
2023-06-30T16:11:42.713Z,26.27
2023-06-30T16:16:46.191Z,25.86
2023-06-30T16:21:50.271Z,25.39
2023-06-30T16:26:53.508Z,24.89
2023-06-30T16:31:56.520Z,24.44
2023-06-30T16:36:59.927Z,23.75
2023-06-30T16:42:03.061Z,22.56
2023-06-30T16:47:06.489Z,21.58
2023-06-30T16:52:09.763Z,20.88
2023-06-30T16:57:12.886Z,20.36
2023-06-30T17:02:16.899Z,20.00
2023-06-30T17:07:20.016Z,19.74
2023-06-30T17:12:23.124Z,19.60
2023-06-30T17:17:26.548Z,19.54
2023-06-30T17:22:29.751Z,19.49
2023-06-30T17:27:33.164Z,19.43
2023-06-30T17:32:36.293Z,19.36
2023-06-30T17:37:39.486Z,19.29
2023-06-30T17:42:42.431Z,19.22
2023-06-30T17:47:45.639Z,19.21
2023-06-30T17:52:48.713Z,19.19
2023-06-30T17:57:51.715Z,19.19
2023-06-30T18:02:54.787Z,19.14
2023-06-30T18:07:58.749Z,19.11
2023-06-30T18:13:03.303Z,19.09
2023-06-30T18:18:06.440Z,19.11
2023-06-30T18:23:09.720Z,19.13
2023-06-30T18:28:13.149Z,19.16
2023-06-30T18:33:16.958Z,19.16
2023-06-30T18:38:20.060Z,19.08
2023-06-30T18:43:23.067Z,19.02
2023-06-30T18:48:26.185Z,18.97
2023-06-30T18:53:29.288Z,18.91
2023-06-30T18:58:32.296Z,18.85
2023-06-30T19:03:35.474Z,18.78
2023-06-30T19:08:38.927Z,18.71
2023-06-30T19:13:42.245Z,18.65
2023-06-30T19:18:45.662Z,18.61
2023-06-30T19:23:48.881Z,18.60
2023-06-30T19:28:51.985Z,18.57
2023-06-30T19:33:55.404Z,18.56
2023-06-30T19:38:58.459Z,18.53
2023-06-30T19:44:01.623Z,18.51
2023-06-30T19:49:04.929Z,18.47
2023-06-30T19:54:08.347Z,18.44
2023-06-30T19:59:11.638Z,18.42
2023-06-30T20:04:14.951Z,18.39
2023-06-30T20:09:19.321Z,18.37
2023-06-30T20:14:22.524Z,18.38
2023-06-30T20:19:25.541Z,18.32
2023-06-30T20:24:28.694Z,18.28
2023-06-30T20:29:31.957Z,18.26
2023-06-30T20:34:35.071Z,18.27
2023-06-30T20:39:39.818Z,18.28
2023-06-30T20:44:43.245Z,18.31
2023-06-30T20:49:46.476Z,18.35
2023-06-30T20:54:49.754Z,18.40
2023-06-30T20:59:52.759Z,18.43
2023-06-30T21:04:59.006Z,18.46
2023-06-30T21:10:02.252Z,18.44
2023-06-30T21:15:06.071Z,18.41
2023-06-30T21:20:10.087Z,18.37
2023-06-30T21:25:13.247Z,18.36
2023-06-30T21:30:16.545Z,18.35
2023-06-30T21:35:19.741Z,18.31
2023-06-30T21:40:22.906Z,18.29
2023-06-30T21:45:26.070Z,18.26
2023-06-30T21:50:29.293Z,18.18
2023-06-30T21:55:32.734Z,18.13
2023-06-30T22:00:36.313Z,18.07
2023-06-30T22:05:39.424Z,18.00
2023-06-30T22:10:42.438Z,17.83
2023-06-30T22:15:45.656Z,17.55
2023-06-30T22:20:49.042Z,17.31
2023-06-30T22:25:52.477Z,17.10
2023-06-30T22:30:55.599Z,16.96
2023-06-30T22:35:58.695Z,16.86
2023-06-30T22:41:02.252Z,16.77
2023-06-30T22:46:05.319Z,16.70
2023-06-30T22:51:08.323Z,16.63
2023-06-30T22:56:11.437Z,16.58
2023-06-30T23:01:14.591Z,16.53
2023-06-30T23:06:17.654Z,16.49
2023-06-30T23:11:20.869Z,16.47
2023-06-30T23:16:24.381Z,16.44
2023-06-30T23:21:29.134Z,16.47
2023-06-30T23:26:36.417Z,16.47
2023-06-30T23:31:40.429Z,16.46
2023-06-30T23:36:43.575Z,16.45
2023-06-30T23:41:46.580Z,16.41
2023-06-30T23:46:49.759Z,16.29
2023-06-30T23:51:53.107Z,16.15
2023-06-30T23:56:56.221Z,16.02
